createdAt,value
2019-02-08T00:01:36.193Z,71.32
2019-02-08T00:04:05.682Z,71.58
2019-02-08T00:06:34.900Z,71.34
2019-02-08T00:09:05.827Z,71.02
2019-02-08T00:11:35.070Z,71.08
2019-02-08T00:14:04.700Z,71.19
2019-02-08T00:16:33.935Z,71.30
2019-02-08T00:19:03.182Z,71.46
2019-02-08T00:21:32.557Z,71.39
2019-02-08T00:24:02.216Z,71.85
2019-02-08T00:26:31.465Z,71.81
2019-02-08T00:29:00.758Z,72.03
2019-02-08T00:31:30.001Z,72.36
2019-02-08T00:33:59.274Z,72.42
2019-02-08T00:36:28.596Z,72.35
2019-02-08T00:38:57.924Z,72.41
2019-02-08T00:41:27.361Z,72.68
2019-02-08T00:43:56.610Z,72.61
2019-02-08T00:46:26.262Z,72.72
2019-02-08T00:48:55.507Z,72.96
2019-02-08T00:51:24.722Z,72.81
2019-02-08T00:53:53.993Z,72.54
2019-02-08T00:56:23.214Z,72.64
2019-02-08T00:58:52.526Z,71.93
2019-02-08T01:01:21.882Z,71.99
2019-02-08T01:03:51.281Z,71.85
2019-02-08T01:06:20.520Z,71.86
2019-02-08T01:08:49.789Z,71.73
2019-02-08T01:11:18.999Z,71.45
2019-02-08T01:13:48.428Z,71.62
2019-02-08T01:16:17.622Z,71.79
2019-02-08T01:18:47.311Z,71.42
2019-02-08T01:21:16.558Z,71.41
2019-02-08T01:23:45.990Z,71.75
2019-02-08T01:26:15.272Z,71.88
2019-02-08T01:28:44.567Z,71.72
2019-02-08T01:31:13.847Z,71.70
2019-02-08T01:33:43.128Z,71.64
2019-02-08T01:36:12.490Z,71.69
2019-02-08T01:38:41.751Z,72.04
2019-02-08T01:41:11.037Z,71.43
2019-02-08T01:43:40.297Z,71.77
2019-02-08T01:46:09.569Z,71.49
2019-02-08T01:48:38.812Z,71.39
2019-02-08T01:51:08.623Z,71.10
2019-02-08T01:53:37.908Z,71.31
2019-02-08T01:56:07.217Z,71.32
2019-02-08T01:58:36.499Z,71.50
2019-02-08T02:01:05.970Z,71.22
2019-02-08T02:03:35.348Z,71.21
2019-02-08T02:06:04.916Z,71.49
2019-02-08T02:08:34.179Z,71.20
2019-02-08T02:11:03.395Z,71.19
2019-02-08T02:13:32.879Z,71.30
2019-02-08T02:16:02.134Z,71.52
2019-02-08T02:18:31.422Z,71.57
2019-02-08T02:21:00.746Z,71.64
2019-02-08T02:23:30.055Z,71.64
2019-02-08T02:25:59.395Z,71.54
2019-02-08T02:28:28.656Z,71.49
2019-02-08T02:30:57.896Z,71.72
2019-02-08T02:33:27.129Z,71.78
2019-02-08T02:35:56.447Z,71.80
2019-02-08T02:38:25.687Z,71.49
2019-02-08T02:40:55.008Z,71.89
2019-02-08T02:43:24.263Z,71.98
2019-02-08T02:45:53.576Z,71.77
2019-02-08T02:48:22.960Z,71.70
2019-02-08T02:50:52.183Z,72.11
2019-02-08T02:53:21.609Z,72.14
2019-02-08T02:55:50.970Z,71.99
2019-02-08T02:58:20.236Z,72.09
2019-02-08T03:00:49.648Z,72.25
2019-02-08T03:03:18.981Z,71.99
2019-02-08T03:08:17.320Z,72.17
2019-02-08T03:10:46.924Z,72.51
2019-02-08T03:13:16.209Z,72.16
2019-02-08T03:15:45.449Z,72.38
2019-02-08T03:18:14.697Z,72.30
2019-02-08T03:20:43.944Z,72.48
2019-02-08T03:23:13.459Z,72.35
2019-02-08T03:25:42.715Z,72.50
2019-02-08T03:28:11.966Z,72.35
2019-02-08T03:31:06.138Z,71.78
2019-02-08T03:33:35.355Z,72.23
2019-02-08T03:36:04.594Z,72.23
2019-02-08T03:38:33.833Z,72.21
2019-02-08T03:41:03.256Z,71.86
2019-02-08T03:43:33.077Z,71.93
2019-02-08T03:46:02.371Z,72.15
2019-02-08T03:48:31.591Z,72.26
2019-02-08T03:53:56.362Z,71.89
2019-02-08T03:57:04.998Z,71.71
2019-02-08T03:59:34.424Z,71.83
2019-02-08T04:02:03.686Z,71.81
2019-02-08T04:05:12.358Z,71.71
2019-02-08T04:07:41.585Z,71.67
2019-02-08T04:10:51.071Z,71.86
2019-02-08T04:13:59.713Z,71.84
2019-02-08T04:16:28.937Z,72.05
2019-02-08T04:18:58.147Z,71.84
2019-02-08T04:21:27.398Z,72.08
2019-02-08T04:27:05.303Z,72.22
2019-02-08T04:29:34.508Z,71.96
2019-02-08T04:32:03.757Z,72.15
2019-02-08T04:34:32.976Z,72.43
2019-02-08T04:37:02.233Z,72.33
2019-02-08T04:39:31.547Z,72.41
2019-02-08T04:42:40.206Z,72.60
2019-02-08T04:45:49.264Z,72.65
2019-02-08T04:48:18.478Z,72.53
2019-02-08T04:51:27.153Z,72.75
2019-02-08T04:53:56.355Z,72.59
2019-02-08T04:57:05.018Z,72.87
2019-02-08T04:59:34.261Z,72.78
2019-02-08T05:04:58.608Z,72.75
2019-02-08T05:07:27.819Z,72.45
2019-02-08T05:15:47.764Z,72.27
2019-02-08T05:18:16.990Z,72.23
2019-02-08T05:20:46.241Z,71.61
2019-02-08T05:26:24.090Z,71.62
2019-02-08T05:29:32.707Z,71.55
2019-02-08T05:32:01.943Z,71.67
2019-02-08T05:35:10.610Z,71.59
2019-02-08T05:40:41.940Z,71.10
2019-02-08T05:46:19.840Z,71.03
2019-02-08T05:51:57.667Z,71.47
2019-02-08T05:54:26.899Z,70.96
2019-02-08T05:56:56.140Z,71.01
2019-02-08T06:05:29.901Z,70.65
2019-02-08T06:08:38.692Z,70.82
2019-02-08T06:11:47.353Z,70.87
2019-02-08T06:14:35.864Z,70.70
2019-02-08T06:20:59.464Z,70.30
2019-02-08T06:26:30.097Z,70.31
2019-02-08T06:28:59.406Z,70.09
2019-02-08T06:31:28.629Z,69.94
2019-02-08T06:33:57.861Z,69.87
2019-02-08T06:42:18.002Z,69.56
2019-02-08T06:44:47.250Z,69.94
2019-02-08T06:50:52.575Z,70.14
2019-02-08T06:54:01.269Z,69.63
2019-02-08T07:02:39.479Z,69.24
2019-02-08T07:05:48.601Z,69.48
2019-02-08T07:08:36.747Z,69.12
2019-02-08T07:11:15.083Z,69.20
2019-02-08T07:14:03.256Z,68.84
2019-02-08T07:17:11.905Z,68.83
2019-02-08T07:19:48.234Z,68.71
2019-02-08T07:22:27.659Z,68.39
2019-02-08T07:25:18.511Z,68.21
2019-02-08T07:28:26.642Z,68.12
2019-02-08T07:31:11.212Z,67.90
2019-02-08T07:33:59.329Z,67.85
2019-02-08T07:37:07.997Z,67.96
2019-02-08T07:40:16.629Z,67.65
2019-02-08T07:43:25.273Z,67.88
2019-02-08T07:46:33.954Z,67.94
2019-02-08T07:49:42.603Z,67.94
2019-02-08T07:52:30.682Z,67.66
2019-02-08T07:55:25.795Z,67.84
2019-02-08T08:01:37.783Z,67.84
2019-02-08T08:04:46.778Z,67.92
2019-02-08T08:11:04.040Z,68.10
2019-02-08T08:14:12.681Z,68.35
2019-02-08T08:17:21.426Z,68.36
2019-02-08T08:20:30.053Z,68.54
2019-02-08T08:23:38.725Z,68.58
2019-02-08T08:26:47.354Z,68.47
2019-02-08T08:29:56.353Z,68.89
2019-02-08T08:33:05.641Z,69.03
2019-02-08T08:36:13.019Z,69.11
2019-02-08T08:39:20.369Z,69.27
2019-02-08T08:42:27.698Z,69.60
2019-02-08T08:45:43.195Z,69.83
2019-02-08T08:48:50.606Z,70.01
2019-02-08T08:51:57.953Z,70.07
2019-02-08T08:55:05.268Z,70.12
2019-02-08T08:58:12.570Z,70.08
2019-02-08T09:01:19.912Z,70.09
2019-02-08T09:04:27.293Z,69.96
2019-02-08T09:14:12.605Z,69.90
2019-02-08T09:17:19.959Z,70.30
2019-02-08T09:20:27.346Z,70.46
2019-02-08T09:26:36.893Z,70.52
2019-02-08T09:32:39.372Z,71.09
2019-02-08T09:35:46.701Z,71.30
2019-02-08T09:42:23.079Z,72.02
2019-02-08T09:48:31.862Z,72.79
2019-02-08T09:51:46.222Z,72.89
2019-02-08T09:54:55.640Z,73.38
2019-02-08T09:58:02.968Z,73.72
2019-02-08T10:01:10.302Z,73.56
2019-02-08T10:04:17.655Z,74.11
2019-02-08T10:10:47.323Z,74.44
2019-02-08T10:13:54.692Z,74.66
2019-02-08T10:17:03.040Z,74.59
2019-02-08T10:20:12.128Z,74.62
2019-02-08T10:26:14.096Z,75.14
2019-02-08T10:29:21.425Z,75.61
2019-02-08T10:32:28.772Z,75.65
2019-02-08T10:42:51.616Z,77.09
2019-02-08T10:48:53.668Z,77.63
2019-02-08T10:52:00.994Z,77.74
2019-02-08T10:55:08.384Z,77.66
2019-02-08T10:58:15.705Z,77.70
2019-02-08T11:01:23.052Z,78.05
2019-02-08T11:04:50.540Z,78.37
2019-02-08T11:07:57.868Z,78.09
2019-02-08T11:11:05.232Z,78.13
2019-02-08T11:14:12.567Z,78.17
2019-02-08T11:17:19.925Z,78.48
2019-02-08T11:23:03.978Z,78.72
2019-02-08T11:28:41.885Z,78.94
2019-02-08T11:31:11.177Z,78.82
2019-02-08T11:33:40.479Z,78.45
2019-02-08T11:36:49.136Z,78.66
2019-02-08T11:40:00.887Z,78.44
2019-02-08T11:42:30.157Z,78.25
2019-02-08T11:47:54.983Z,78.02
2019-02-08T11:50:24.271Z,77.70
2019-02-08T11:55:48.526Z,77.84
2019-02-08T11:58:57.220Z,77.24
2019-02-08T12:04:16.316Z,77.02
2019-02-08T12:09:54.220Z,76.38
2019-02-08T12:12:23.502Z,76.37
2019-02-08T12:14:52.780Z,75.92
2019-02-08T12:17:22.009Z,75.87
2019-02-08T12:20:30.654Z,75.57
2019-02-08T12:22:59.896Z,75.67
2019-02-08T12:25:29.114Z,75.49
2019-02-08T12:27:58.374Z,75.16
2019-02-08T12:30:33.536Z,74.86
2019-02-08T12:33:02.780Z,74.43
2019-02-08T12:35:32.194Z,74.44
2019-02-08T12:38:40.906Z,74.42
2019-02-08T12:41:10.183Z,74.41
2019-02-08T12:43:39.479Z,74.34
2019-02-08T12:46:08.811Z,74.40
2019-02-08T12:48:38.056Z,74.18
2019-02-08T12:51:46.706Z,74.31
2019-02-08T12:54:16.037Z,74.58
2019-02-08T12:56:45.889Z,74.65
2019-02-08T12:59:16.169Z,74.62
2019-02-08T13:01:45.386Z,74.86
2019-02-08T13:04:14.663Z,74.76
2019-02-08T13:07:23.330Z,75.00
2019-02-08T13:10:12.538Z,75.18
2019-02-08T13:12:41.785Z,75.17
2019-02-08T13:15:50.729Z,75.73
2019-02-08T13:18:59.729Z,75.89
2019-02-08T13:21:29.036Z,76.06
2019-02-08T13:23:58.278Z,76.00
2019-02-08T13:26:27.536Z,75.99
2019-02-08T13:28:56.802Z,76.30
2019-02-08T13:31:26.206Z,76.38
2019-02-08T13:39:41.253Z,75.73
2019-02-08T13:42:10.511Z,75.63
2019-02-08T13:44:39.706Z,75.77
2019-02-08T13:47:27.962Z,75.17
2019-02-08T13:49:57.217Z,74.79
2019-02-08T13:52:26.475Z,75.11
2019-02-08T13:54:56.059Z,75.02
2019-02-08T13:57:25.306Z,74.67
2019-02-08T13:59:54.549Z,74.42
2019-02-08T14:02:23.828Z,74.34
2019-02-08T14:04:53.057Z,74.40
2019-02-08T14:07:22.283Z,74.32
2019-02-08T14:09:51.476Z,73.96
2019-02-08T14:12:20.761Z,73.62
2019-02-08T14:15:29.387Z,73.44
2019-02-08T14:17:58.643Z,72.55
2019-02-08T14:23:36.619Z,71.88
2019-02-08T14:26:06.049Z,71.67
2019-02-08T14:28:35.421Z,71.40
2019-02-08T14:31:04.780Z,71.07
2019-02-08T14:33:34.298Z,71.10
2019-02-08T14:36:03.513Z,70.74
2019-02-08T14:38:32.748Z,70.66
2019-02-08T14:41:01.994Z,70.72
2019-02-08T14:43:31.262Z,70.14
2019-02-08T14:46:00.456Z,69.32
2019-02-08T14:48:29.747Z,69.54
2019-02-08T14:50:59.016Z,69.57
2019-02-08T14:53:28.604Z,69.36
2019-02-08T14:55:58.350Z,69.21
2019-02-08T14:58:27.610Z,69.34
2019-02-08T15:00:56.876Z,69.24
2019-02-08T15:03:26.098Z,69.19
2019-02-08T15:05:55.441Z,69.16
2019-02-08T15:08:24.714Z,69.25
2019-02-08T15:18:30.037Z,69.21
2019-02-08T16:02:24.250Z,74.11
2019-02-08T16:06:01.522Z,74.49
2019-02-08T16:19:28.016Z,74.87
2019-02-08T16:21:57.268Z,75.13
2019-02-08T16:24:26.509Z,75.46
2019-02-08T16:26:55.753Z,75.64
2019-02-08T16:29:25.014Z,75.75
2019-02-08T16:31:54.350Z,75.61
2019-02-08T16:37:03.853Z,75.72
2019-02-08T16:39:34.477Z,75.62
2019-02-08T16:42:03.733Z,75.55
2019-02-08T16:44:33.027Z,75.48
2019-02-08T16:47:02.262Z,75.29
2019-02-08T16:49:31.504Z,75.39
2019-02-08T16:52:00.818Z,75.36
2019-02-08T16:54:30.086Z,75.14
2019-02-08T16:56:59.355Z,75.33
2019-02-08T16:59:28.641Z,75.10
2019-02-08T17:01:57.903Z,74.94
2019-02-08T17:04:27.121Z,74.78
2019-02-08T17:06:56.377Z,74.69
2019-02-08T17:09:25.639Z,74.67
2019-02-08T17:12:34.364Z,74.28
2019-02-08T17:15:04.158Z,74.21
2019-02-08T17:17:33.824Z,74.02
2019-02-08T17:20:03.085Z,73.56
2019-02-08T17:22:32.323Z,73.21
2019-02-08T17:25:01.588Z,73.09
2019-02-08T17:27:30.866Z,72.77
2019-02-08T17:30:00.202Z,72.60
2019-02-08T17:32:29.559Z,72.94
2019-02-08T17:34:58.864Z,72.03
2019-02-08T17:37:28.153Z,71.96
2019-02-08T17:39:57.449Z,71.89
2019-02-08T17:42:26.866Z,71.72
2019-02-08T17:44:56.136Z,71.20
2019-02-08T17:47:25.712Z,70.91
2019-02-08T17:49:54.935Z,70.68
2019-02-08T17:52:24.317Z,70.33
2019-02-08T17:54:53.552Z,70.35
2019-02-08T17:57:22.848Z,69.99
2019-02-08T17:59:52.144Z,69.99
2019-02-08T18:02:21.900Z,69.91
2019-02-08T18:04:52.602Z,69.83
2019-02-08T18:07:22.055Z,69.83
2019-02-08T18:09:51.378Z,69.72
2019-02-08T18:12:20.789Z,69.73
2019-02-08T18:14:50.082Z,69.27
2019-02-08T18:17:19.352Z,69.43
2019-02-08T18:19:48.602Z,69.28
2019-02-08T18:22:17.914Z,69.15
2019-02-08T18:25:06.563Z,68.94
2019-02-08T18:30:38.262Z,68.41
2019-02-08T18:33:07.869Z,68.38
2019-02-08T18:35:37.131Z,68.16
2019-02-08T18:38:46.654Z,67.85
2019-02-08T18:41:15.944Z,67.85
2019-02-08T18:43:45.209Z,67.94
2019-02-08T18:46:14.502Z,67.99
2019-02-08T18:48:43.792Z,67.94
2019-02-08T18:51:13.117Z,67.88
2019-02-08T18:53:42.476Z,67.81
2019-02-08T18:56:11.828Z,67.73
2019-02-08T18:58:41.221Z,67.51
2019-02-08T19:01:10.638Z,67.57
2019-02-08T19:03:39.932Z,67.50
2019-02-08T19:06:09.228Z,67.91
2019-02-08T19:08:38.704Z,67.44
2019-02-08T19:11:07.943Z,67.48
2019-02-08T19:13:37.279Z,67.29
2019-02-08T19:16:45.942Z,67.16
2019-02-08T19:19:15.241Z,67.08
2019-02-08T19:22:03.521Z,67.05
2019-02-08T19:24:32.838Z,67.02
2019-02-08T19:27:02.355Z,66.62
2019-02-08T19:29:31.677Z,66.73
2019-02-08T19:32:01.157Z,66.85
2019-02-08T19:34:31.065Z,66.89
2019-02-08T19:37:00.383Z,66.79
2019-02-08T19:39:29.762Z,66.81
2019-02-08T19:41:59.014Z,67.06
2019-02-08T19:44:28.346Z,66.80
2019-02-08T19:46:57.620Z,66.86
2019-02-08T19:49:26.947Z,66.63
2019-02-08T19:51:56.199Z,66.61
2019-02-08T19:54:25.642Z,66.50
2019-02-08T19:56:54.957Z,66.49
2019-02-08T19:59:43.355Z,66.57
2019-02-08T20:02:20.106Z,66.25
2019-02-08T20:04:49.601Z,66.22
2019-02-08T20:07:18.917Z,66.13
2019-02-08T20:10:07.203Z,66.29
2019-02-08T20:12:37.233Z,66.15
2019-02-08T20:15:46.663Z,66.14
2019-02-08T20:18:16.285Z,66.09
2019-02-08T20:20:45.618Z,65.99
2019-02-08T20:23:15.018Z,65.84
2019-02-08T20:25:46.210Z,65.91
2019-02-08T20:28:15.446Z,65.98
2019-02-08T20:30:45.065Z,65.96
2019-02-08T20:33:58.202Z,65.88
2019-02-08T20:37:29.560Z,66.04
2019-02-08T20:51:02.095Z,65.70
2019-02-08T20:54:53.763Z,65.55
2019-02-08T20:57:50.607Z,65.66
2019-02-08T21:01:45.861Z,65.72
2019-02-08T21:04:51.176Z,65.57
2019-02-08T21:19:23.659Z,65.46
2019-02-08T21:25:34.216Z,65.23
2019-02-08T21:28:47.125Z,65.45
2019-02-08T21:32:20.323Z,65.19
2019-02-08T21:38:37.693Z,65.26
2019-02-08T21:42:09.413Z,65.33
2019-02-08T21:45:39.438Z,65.19
2019-02-08T21:49:02.400Z,65.20
2019-02-08T22:03:06.447Z,64.90
2019-02-08T22:27:42.223Z,64.69
2019-02-08T22:38:42.255Z,64.55
2019-02-08T22:56:43.387Z,64.17
2019-02-08T23:00:28.921Z,64.19
2019-02-08T23:03:31.750Z,64.23
2019-02-08T23:11:16.423Z,64.19
2019-02-08T23:14:17.444Z,64.17
2019-02-08T23:17:31.689Z,64.20
2019-02-08T23:20:54.909Z,64.12
2019-02-08T23:24:13.198Z,64.22
2019-02-08T23:49:47.387Z,64.17
2019-02-08T23:52:16.628Z,64.27
2019-02-08T23:54:45.842Z,64.35
2019-02-08T23:57:15.063Z,64.21
2019-02-08T23:59:44.342Z,64.57
